Time;durP1;ratioP1;P1;durP2;ratioP2;P2;SDS_P1;SDS_P2;PMS_P1;PMS_P2;Temp;Humidity;BMP_temperature;BMP_pressure;BME280_temperature;BME280_humidity;BME280_pressure;Samples;Min_cycle;Max_cycle;Signal;HPM_P1;HPM_P2
2022/03/15 00:01:42;;;;;;;8.95;3.50;;;;;;;7.18;75.16;101105.34;4924532;29;20050;-78
2022/03/15 00:04:07;;;;;;;10.07;4.55;;;;;;;7.06;75.66;101105.94;4923312;29;20115;-80
2022/03/15 00:06:34;;;;;;;11.27;4.93;;;;;;;7.01;76.30;101105.75;4924040;29;20086;-78
2022/03/15 00:08:59;;;;;;;10.02;4.32;;;;;;;7.30;74.50;101103.63;4924017;29;20258;-77
2022/03/15 00:11:25;;;;;;;11.70;3.97;;;;;;;7.74;72.69;101092.31;4924184;29;20042;-78
2022/03/15 00:13:51;;;;;;;8.90;4.53;;;;;;;7.52;73.43;101102.59;4922731;29;20266;-79
2022/03/15 00:16:16;;;;;;;9.95;4.90;;;;;;;7.30;74.95;101098.22;4928439;29;20721;-80
2022/03/15 00:18:42;;;;;;;14.10;4.97;;;;;;;7.38;74.66;101099.06;4931473;29;20039;-79
2022/03/15 00:21:10;;;;;;;11.90;4.15;;;;;;;7.23;75.11;101097.41;4923077;29;20077;-77
2022/03/15 00:23:36;;;;;;;8.18;4.18;;;;;;;7.10;75.73;101111.78;4923148;29;20028;-79
2022/03/15 00:26:02;;;;;;;8.07;3.97;;;;;;;6.85;76.15;101118.69;4922894;29;20169;-79
2022/03/15 00:28:31;;;;;;;9.23;4.18;;;;;;;7.03;76.24;101108.25;4923174;29;20934;-78
2022/03/15 00:30:56;;;;;;;14.75;5.28;;;;;;;7.10;76.10;101100.94;4922444;29;20082;-78
2022/03/15 00:33:24;;;;;;;12.75;5.78;;;;;;;7.34;75.14;101104.91;4906103;29;20684;-79
2022/03/15 00:35:51;;;;;;;10.23;5.40;;;;;;;7.70;73.42;101093.78;4924135;29;20156;-77
2022/03/15 00:38:16;;;;;;;12.15;4.43;;;;;;;7.71;72.94;101098.16;4922502;29;20034;-79
2022/03/15 00:40:41;;;;;;;8.85;4.78;;;;;;;7.40;74.66;101096.97;4923099;29;20023;-79
2022/03/15 00:43:06;;;;;;;10.83;4.90;;;;;;;7.19;74.34;101098.84;4922842;29;20042;-78
2022/03/15 00:45:32;;;;;;;13.65;6.63;;;;;;;7.36;74.18;101097.38;4923602;29;20276;-78
2022/03/15 00:48:00;;;;;;;10.77;4.33;;;;;;;7.36;73.07;101097.38;4905547;29;20058;-78
2022/03/15 00:50:27;;;;;;;10.23;5.03;;;;;;;7.65;72.42;101091.69;4923640;29;20785;-79
2022/03/15 00:52:53;;;;;;;10.38;4.00;;;;;;;7.74;71.88;101081.44;4922227;29;20043;-79
2022/03/15 00:55:19;;;;;;;11.43;3.95;;;;;;;7.40;72.79;101088.84;4921418;29;21183;-79
2022/03/15 00:57:45;;;;;;;12.30;5.95;;;;;;;7.04;73.78;101094.47;4922312;29;20054;-79
2022/03/15 01:00:12;;;;;;;15.88;4.57;;;;;;;6.85;75.46;101088.84;4923050;29;20040;-79
2022/03/15 01:02:38;;;;;;;12.60;4.70;;;;;;;6.62;75.48;101086.50;4923531;29;20032;-78
2022/03/15 01:05:04;;;;;;;11.55;5.55;;;;;;;6.61;75.70;101082.16;4922445;29;20121;-79
2022/03/15 01:07:29;;;;;;;10.43;4.80;;;;;;;6.51;75.64;101082.53;4923722;29;20023;-77
2022/03/15 01:09:55;;;;;;;12.60;4.57;;;;;;;6.60;75.69;101075.88;4922548;29;20035;-77
2022/03/15 01:12:21;;;;;;;10.43;5.13;;;;;;;6.46;75.45;101085.03;4923117;29;20039;-78
2022/03/15 01:14:47;;;;;;;11.27;4.80;;;;;;;6.28;76.79;101086.44;4922864;29;20039;-78
2022/03/15 01:17:12;;;;;;;11.48;3.88;;;;;;;6.48;76.09;101093.78;4934764;29;20102;-76
2022/03/15 01:19:37;;;;;;;9.60;4.80;;;;;;;6.28;76.41;101087.28;4927781;29;20653;-78
2022/03/15 01:22:03;;;;;;;15.27;5.45;;;;;;;6.50;76.06;101087.13;4923447;29;20469;-79
2022/03/15 01:24:29;;;;;;;14.45;6.05;;;;;;;6.12;77.24;101083.03;4922536;29;20057;-78
2022/03/15 01:26:54;;;;;;;12.50;5.80;;;;;;;6.05;77.41;101076.72;4922237;29;20075;-78
2022/03/15 01:29:21;;;;;;;8.05;4.75;;;;;;;5.87;78.02;101069.16;4923005;29;20032;-79
2022/03/15 01:31:47;;;;;;;9.57;4.50;;;;;;;5.76;78.95;101074.09;4923026;29;20035;-77
2022/03/15 01:34:14;;;;;;;10.40;4.03;;;;;;;5.97;78.81;101075.03;4922466;29;20091;-78
2022/03/15 01:36:39;;;;;;;13.60;4.97;;;;;;;6.18;76.76;101070.56;4922142;29;20032;-78
2022/03/15 01:39:05;;;;;;;10.27;4.38;;;;;;;6.35;76.64;101062.91;4922657;29;20020;-78
2022/03/15 01:41:35;;;;;;;17.15;5.38;;;;;;;6.48;76.17;101066.69;4923219;29;20032;-78
2022/03/15 01:44:01;;;;;;;9.65;4.45;;;;;;;6.34;76.32;101063.94;4921377;29;20124;-79
2022/03/15 01:46:27;;;;;;;14.32;5.05;;;;;;;6.63;74.75;101066.53;4922523;29;20059;-78
2022/03/15 01:48:52;;;;;;;14.38;5.70;;;;;;;6.61;76.44;101069.41;4922394;29;20032;-78
2022/03/15 01:51:18;;;;;;;17.57;6.60;;;;;;;6.69;74.90;101057.53;4922996;29;20067;-78
2022/03/15 01:53:43;;;;;;;12.95;5.03;;;;;;;6.70;74.91;101052.94;4921718;29;20274;-79
2022/03/15 01:56:09;;;;;;;17.42;6.22;;;;;;;6.77;74.62;101061.94;4922370;29;20361;-78
2022/03/15 01:58:34;;;;;;;13.50;6.32;;;;;;;6.72;74.52;101053.59;4904961;29;20036;-79
2022/03/15 02:01:00;;;;;;;8.48;4.78;;;;;;;6.74;74.79;101051.50;4922427;29;20035;-78
2022/03/15 02:03:25;;;;;;;15.13;4.50;;;;;;;6.59;75.75;101054.41;4922988;29;20079;-78
2022/03/15 02:05:51;;;;;;;13.32;5.20;;;;;;;6.69;76.23;101049.41;4922725;29;20786;-78
2022/03/15 02:08:16;;;;;;;8.82;4.25;;;;;;;6.77;75.94;101048.38;4922772;29;20035;-78
2022/03/15 02:10:43;;;;;;;8.07;3.53;;;;;;;6.80;74.64;101056.09;4922247;29;20036;-79
2022/03/15 02:13:22;;;;;;;9.63;3.70;;;;;;;6.88;74.73;101047.75;4921811;29;20027;-79
2022/03/15 02:15:47;;;;;;;8.90;4.15;;;;;;;6.96;75.10;101040.44;4922997;29;20020;-79
2022/03/15 02:18:12;;;;;;;14.55;4.55;;;;;;;7.01;74.94;101040.66;4943297;28;20031;-79
2022/03/15 02:20:38;;;;;;;11.67;4.03;;;;;;;7.16;73.74;101039.63;4943172;29;20047;-78
2022/03/15 02:23:03;;;;;;;18.73;4.38;;;;;;;7.14;74.11;101039.00;4908123;29;20282;-78
2022/03/15 02:25:29;;;;;;;8.50;3.40;;;;;;;7.09;73.35;101037.75;4925877;29;20039;-79
2022/03/15 02:27:54;;;;;;;10.35;4.25;;;;;;;7.04;74.24;101040.22;4925842;29;20028;-78
2022/03/15 02:30:21;;;;;;;8.00;4.25;;;;;;;7.11;73.42;101040.25;4925729;29;20036;-79
2022/03/15 02:32:48;;;;;;;8.65;3.60;;;;;;;7.22;73.27;101033.34;4925193;29;20518;-78
2022/03/15 02:35:14;;;;;;;12.13;5.65;;;;;;;7.00;73.67;101030.84;4925543;29;20047;-78
2022/03/15 02:37:39;;;;;;;13.68;4.85;;;;;;;7.47;71.24;101028.06;4925711;29;20035;-78
2022/03/15 02:40:06;;;;;;;12.50;4.93;;;;;;;7.75;70.63;101025.28;4925030;29;20024;-79
2022/03/15 02:42:31;;;;;;;10.48;4.70;;;;;;;7.73;70.48;101022.75;4925767;29;20043;-80
2022/03/15 02:44:56;;;;;;;10.25;4.15;;;;;;;7.95;69.07;101027.91;4925118;29;20460;-79
2022/03/15 02:47:22;;;;;;;10.03;4.23;;;;;;;7.95;68.88;101025.19;4925682;29;20066;-78
2022/03/15 02:49:47;;;;;;;11.15;5.43;;;;;;;7.68;70.03;101009.84;4925854;29;20808;-78
2022/03/15 02:52:14;;;;;;;18.08;4.20;;;;;;;7.86;70.32;101012.91;4925151;29;20059;-79
2022/03/15 02:54:41;;;;;;;14.88;3.53;;;;;;;7.55;72.19;101010.72;4925692;29;20046;-78
2022/03/15 02:57:10;;;;;;;11.57;3.78;;;;;;;7.41;72.46;101001.78;4925413;29;20060;-78
2022/03/15 02:59:39;;;;;;;10.52;4.43;;;;;;;7.29;72.37;101000.78;4926066;29;20122;-79
2022/03/15 03:02:08;;;;;;;8.43;4.45;;;;;;;7.32;73.33;100998.47;4924688;29;20015;-78
2022/03/15 03:04:33;;;;;;;13.18;3.95;;;;;;;7.27;72.86;101000.97;4925423;29;20446;-79
2022/03/15 03:07:01;;;;;;;12.05;4.43;;;;;;;7.04;74.13;100996.84;4924496;29;20020;-78
2022/03/15 03:09:27;;;;;;;6.25;2.85;;;;;;;7.26;73.76;100993.88;4908330;29;20067;-78
2022/03/15 03:11:52;;;;;;;8.82;3.72;;;;;;;7.20;73.39;100986.63;4925426;29;20074;-80
2022/03/15 03:14:21;;;;;;;8.32;3.78;;;;;;;7.12;74.85;100983.06;4923635;29;20035;-78
2022/03/15 03:16:46;;;;;;;6.30;2.90;;;;;;;7.31;73.27;100985.94;4934075;29;20394;-77
2022/03/15 03:19:12;;;;;;;9.88;3.97;;;;;;;7.23;74.38;100978.88;4944064;29;20054;-79
2022/03/15 03:21:38;;;;;;;8.98;4.30;;;;;;;7.31;73.75;100985.09;4934885;29;20490;-80
2022/03/15 03:24:08;;;;;;;9.32;4.20;;;;;;;7.43;71.36;100977.97;4925317;29;20475;-79
2022/03/15 03:26:37;;;;;;;9.32;3.28;;;;;;;7.38;71.82;100968.81;4924376;29;20158;-79
2022/03/15 03:29:09;;;;;;;10.32;3.58;;;;;;;7.25;72.61;100967.81;4922715;29;20070;-79
2022/03/15 03:31:37;;;;;;;9.05;4.03;;;;;;;6.77;74.51;100976.00;4924831;29;20512;-77
2022/03/15 03:34:02;;;;;;;8.88;3.40;;;;;;;6.69;75.24;100983.53;4924849;29;20095;-79
2022/03/15 03:36:30;;;;;;;10.15;4.68;;;;;;;6.61;74.97;100971.03;4923239;29;20040;-79
2022/03/15 03:38:55;;;;;;;11.60;5.10;;;;;;;6.63;75.95;100972.47;4925190;29;20027;-78
2022/03/15 03:41:20;;;;;;;8.50;4.27;;;;;;;6.70;75.99;100977.06;4923731;29;20073;-78
2022/03/15 03:43:46;;;;;;;14.77;3.97;;;;;;;6.67;75.31;100974.78;4924369;29;20318;-78
2022/03/15 03:46:11;;;;;;;10.23;3.90;;;;;;;6.77;74.72;100965.16;4923931;29;20067;-78
2022/03/15 03:48:50;;;;;;;9.00;3.88;;;;;;;6.76;74.80;100968.94;4924133;29;20309;-78
2022/03/15 03:51:18;;;;;;;7.93;3.10;;;;;;;6.67;74.83;100961.22;4924206;29;20060;-78
2022/03/15 03:53:43;;;;;;;9.98;3.40;;;;;;;6.42;75.97;100963.53;4924808;29;20039;-79
2022/03/15 03:56:09;;;;;;;8.45;3.80;;;;;;;6.40;76.45;100965.59;4924894;29;20038;-78
2022/03/15 03:58:34;;;;;;;7.95;2.58;;;;;;;6.48;76.05;100966.44;4923654;29;20038;-79
2022/03/15 04:01:01;;;;;;;6.18;3.17;;;;;;;6.80;75.03;100966.63;4924218;29;20066;-78
2022/03/15 04:03:31;;;;;;;15.07;3.13;;;;;;;6.67;75.39;100970.22;4924106;29;20071;-79
2022/03/15 04:05:57;;;;;;;7.03;3.25;;;;;;;6.54;76.14;100968.31;4924092;29;20395;-77
2022/03/15 04:08:24;;;;;;;10.82;2.15;;;;;;;6.43;77.27;100975.19;4925078;29;20032;-79
2022/03/15 04:10:50;;;;;;;8.60;3.33;;;;;;;6.30;77.50;100973.31;4922869;29;20124;-79
2022/03/15 04:13:18;;;;;;;6.65;2.45;;;;;;;6.45;77.29;100983.13;4924494;29;20155;-77
2022/03/15 04:15:48;;;;;;;6.63;2.47;;;;;;;6.67;76.22;100982.91;4923640;29;20031;-78
2022/03/15 04:18:13;;;;;;;7.38;2.90;;;;;;;6.67;76.21;100981.03;4942718;29;20066;-78
2022/03/15 04:20:39;;;;;;;5.72;2.97;;;;;;;7.23;73.25;100981.59;4927392;29;20047;-78
2022/03/15 04:23:05;;;;;;;9.32;3.13;;;;;;;7.80;70.37;100982.84;4904310;29;20127;-78
2022/03/15 04:25:30;;;;;;;9.63;3.00;;;;;;;7.87;69.31;100976.56;4904575;29;20127;-79
2022/03/15 04:28:00;;;;;;;10.15;3.60;;;;;;;8.22;67.70;100973.41;4903591;29;20028;-79
2022/03/15 04:30:29;;;;;;;7.30;2.70;;;;;;;8.40;66.63;100980.00;4904771;29;20064;-80
2022/03/15 04:32:54;;;;;;;6.50;2.78;;;;;;;8.55;66.11;100974.22;4904084;29;20028;-80
2022/03/15 04:35:20;;;;;;;9.27;3.20;;;;;;;8.52;65.94;100975.50;4903853;29;20033;-80
2022/03/15 04:37:45;;;;;;;8.52;2.28;;;;;;;8.56;65.40;100975.06;4904672;29;20127;-77
2022/03/15 04:40:12;;;;;;;7.85;3.00;;;;;;;8.56;65.63;100983.22;4903552;29;20099;-76
2022/03/15 04:42:37;;;;;;;11.68;3.60;;;;;;;8.64;65.09;100985.69;4904324;29;20038;-78
2022/03/15 04:45:03;;;;;;;9.07;2.28;;;;;;;8.35;66.41;100977.94;4903558;29;20462;-78
2022/03/15 04:47:29;;;;;;;6.05;2.67;;;;;;;8.38;66.23;100976.69;4903672;29;20040;-79
2022/03/15 04:49:55;;;;;;;7.78;2.80;;;;;;;8.48;65.28;100968.84;4902913;29;20087;-79
2022/03/15 04:52:20;;;;;;;8.80;2.15;;;;;;;8.68;64.38;100965.19;4904516;29;20048;-79
2022/03/15 04:54:45;;;;;;;6.35;1.88;;;;;;;8.60;65.50;100965.44;4903380;29;20357;-78
2022/03/15 04:57:11;;;;;;;9.60;2.58;;;;;;;8.36;65.04;100955.13;4904607;29;20033;-79
2022/03/15 04:59:36;;;;;;;12.77;3.55;;;;;;;8.28;65.98;100956.22;4902168;29;20123;-78
2022/03/15 05:02:02;;;;;;;5.20;2.50;;;;;;;7.92;69.03;100963.16;4903493;29;20084;-79
2022/03/15 05:04:27;;;;;;;6.20;2.38;;;;;;;7.81;69.74;100957.34;4903651;29;20577;-80
2022/03/15 05:06:53;;;;;;;5.85;2.80;;;;;;;7.48;70.81;100958.34;4903357;29;20031;-77
2022/03/15 05:09:18;;;;;;;12.63;3.00;;;;;;;7.23;72.38;100956.34;4904572;29;20042;-78
2022/03/15 05:11:46;;;;;;;11.00;3.10;;;;;;;7.18;72.29;100953.44;4904201;29;20134;-79
2022/03/15 05:14:12;;;;;;;8.27;3.05;;;;;;;7.02;72.84;100950.13;4903853;29;20640;-78
2022/03/15 05:16:51;;;;;;;7.80;3.58;;;;;;;6.90;73.75;100947.22;4903944;29;20092;-79
2022/03/15 05:19:16;;;;;;;10.47;3.97;;;;;;;6.96;73.55;100945.53;4905166;29;20031;-79
2022/03/15 05:21:41;;;;;;;5.57;3.45;;;;;;;7.50;70.90;100945.41;4937134;29;20297;-78
2022/03/15 05:24:07;;;;;;;8.85;2.17;;;;;;;7.53;70.09;100949.53;4940405;29;20054;-80
2022/03/15 05:26:32;;;;;;;6.83;3.00;;;;;;;8.05;66.90;100946.78;4923617;29;20027;-79
2022/03/15 05:28:57;;;;;;;8.55;2.17;;;;;;;7.76;68.88;100942.78;4937858;29;20281;-79
2022/03/15 05:31:26;;;;;;;5.15;2.88;;;;;;;7.87;67.42;100941.25;4932937;29;20143;-79
2022/03/15 05:33:52;;;;;;;8.27;2.03;;;;;;;8.20;66.04;100932.06;4941081;29;20592;-79
2022/03/15 05:36:18;;;;;;;7.53;3.05;;;;;;;8.06;66.55;100931.31;4928491;28;20460;-79
2022/03/15 05:38:44;;;;;;;4.70;2.85;;;;;;;8.43;65.28;100936.06;4922475;29;20115;-78
2022/03/15 05:41:09;;;;;;;6.07;1.80;;;;;;;8.47;64.98;100934.56;4922254;29;20844;-79
2022/03/15 05:43:36;;;;;;;6.97;2.58;;;;;;;7.97;68.08;100938.06;4934929;29;20569;-79
2022/03/15 05:46:02;;;;;;;10.57;2.53;;;;;;;8.30;65.71;100934.28;4931978;29;20039;-79
2022/03/15 05:48:27;;;;;;;11.20;2.97;;;;;;;8.38;65.06;100931.28;4925714;29;21211;-78
2022/03/15 05:50:52;;;;;;;5.45;2.33;;;;;;;8.26;65.25;100924.91;4936841;29;20691;-79
2022/03/15 05:53:18;;;;;;;9.00;2.58;;;;;;;8.13;66.15;100926.69;4943692;28;20035;-78
2022/03/15 05:55:43;;;;;;;4.95;2.03;;;;;;;8.47;64.87;100929.13;4944270;29;20098;-78
2022/03/15 05:58:09;;;;;;;6.88;2.35;;;;;;;8.52;64.75;100933.91;4943553;29;20035;-78
2022/03/15 06:00:34;;;;;;;8.05;2.47;;;;;;;8.33;64.80;100924.84;4936350;29;20039;-79
2022/03/15 06:03:00;;;;;;;9.18;2.70;;;;;;;8.40;64.40;100922.94;4928837;29;20039;-80
2022/03/15 06:05:25;;;;;;;8.30;1.70;;;;;;;8.46;63.85;100919.31;4926506;29;20904;-79
2022/03/15 06:07:52;;;;;;;5.57;2.33;;;;;;;8.45;64.68;100928.53;4925526;29;20023;-79
2022/03/15 06:10:21;;;;;;;6.13;2.15;;;;;;;8.45;64.96;100928.53;4923979;29;20024;-79
2022/03/15 06:12:47;;;;;;;7.45;2.72;;;;;;;8.43;65.03;100936.06;4907495;29;20485;-79
2022/03/15 06:15:13;;;;;;;9.25;2.60;;;;;;;8.33;64.75;100928.41;4925388;29;20035;-79
2022/03/15 06:17:49;;;;;;;4.93;2.25;;;;;;;8.24;65.47;100927.00;4910436;29;20051;-79
2022/03/15 06:20:17;;;;;;;6.75;2.20;;;;;;;7.91;67.55;100926.19;4920735;29;20048;-79
2022/03/15 06:22:44;;;;;;;6.32;2.25;;;;;;;7.87;68.32;100933.13;4921533;29;20058;-80
2022/03/15 06:25:10;;;;;;;5.03;1.98;;;;;;;7.80;69.15;100928.56;4924227;29;20555;-78
2022/03/15 06:27:49;;;;;;;7.80;2.97;;;;;;;7.57;69.62;100927.19;4924732;29;20377;-79
2022/03/15 06:30:19;;;;;;;10.10;2.72;;;;;;;7.53;70.15;100925.13;4926900;29;20475;-79
2022/03/15 06:32:44;;;;;;;8.50;2.97;;;;;;;7.96;69.20;100923.66;4941713;29;20101;-79
2022/03/15 06:35:12;;;;;;;5.63;2.40;;;;;;;7.70;69.20;100928.19;4924399;29;20044;-80
2022/03/15 06:37:39;;;;;;;8.82;3.03;;;;;;;7.67;69.98;100923.16;4923682;29;20024;-80
2022/03/15 06:40:09;;;;;;;5.82;2.35;;;;;;;7.90;68.54;100921.81;4923831;29;20138;-79
2022/03/15 06:42:35;;;;;;;8.80;2.90;;;;;;;8.06;67.19;100917.72;4922112;29;20245;-78
2022/03/15 06:45:01;;;;;;;9.82;2.95;;;;;;;8.35;65.39;100911.88;4924615;29;20055;-79
2022/03/15 06:47:26;;;;;;;5.32;2.53;;;;;;;8.41;64.70;100914.56;4926098;29;20467;-79
2022/03/15 06:49:52;;;;;;;13.15;3.65;;;;;;;8.49;64.38;100913.44;4908260;29;20038;-78
2022/03/15 06:52:17;;;;;;;8.25;2.35;;;;;;;8.26;65.18;100912.16;4924193;29;20471;-79
2022/03/15 06:54:42;;;;;;;7.22;2.63;;;;;;;8.31;65.10;100911.50;4922012;29;20538;-79
2022/03/15 06:57:08;;;;;;;20.65;3.80;;;;;;;8.43;64.78;100917.03;4924732;29;20031;-81
2022/03/15 06:59:34;;;;;;;8.38;4.68;;;;;;;8.32;64.68;100912.34;4927736;29;20039;-79
2022/03/15 07:02:00;;;;;;;7.50;4.10;;;;;;;8.58;64.26;100907.75;4912643;29;20736;-79
2022/03/15 07:04:25;;;;;;;8.70;2.97;;;;;;;8.45;64.19;100908.66;4932749;29;20027;-79
2022/03/15 07:06:51;;;;;;;8.52;2.72;;;;;;;8.63;63.79;100900.59;4927571;29;20473;-79
2022/03/15 07:09:16;;;;;;;15.63;3.97;;;;;;;8.78;63.53;100907.56;4925006;29;20032;-79
2022/03/15 07:11:54;;;;;;;7.18;3.10;;;;;;;8.49;64.45;100910.72;4923093;29;20795;-80
2022/03/15 07:14:20;;;;;;;8.95;3.17;;;;;;;8.66;63.96;100903.91;4921883;29;20035;-79
2022/03/15 07:16:45;;;;;;;12.40;3.13;;;;;;;8.69;63.92;100901.56;4936080;29;20038;-79
2022/03/15 07:19:10;;;;;;;10.10;3.90;;;;;;;8.72;64.07;100906.56;4939563;29;20032;-79
2022/03/15 07:21:36;;;;;;;6.77;2.43;;;;;;;8.85;63.42;100899.31;4923337;29;20317;-80
2022/03/15 07:24:01;;;;;;;8.13;2.97;;;;;;;8.99;64.28;100906.28;4924398;29;21133;-80
2022/03/15 07:26:26;;;;;;;8.57;2.65;;;;;;;8.87;63.66;100891.75;4922589;29;20285;-79
2022/03/15 07:28:52;;;;;;;6.30;2.95;;;;;;;9.02;62.62;100898.72;4921950;29;20098;-78
2022/03/15 07:31:17;;;;;;;8.13;2.60;;;;;;;9.11;62.46;100897.38;4923845;29;20256;-81
2022/03/15 07:33:42;;;;;;;7.53;2.58;;;;;;;9.06;61.70;100891.78;4905278;29;20031;-81
2022/03/15 07:36:08;;;;;;;7.93;2.53;;;;;;;9.15;61.63;100893.16;4924276;29;20404;-81
2022/03/15 07:38:33;;;;;;;9.23;2.83;;;;;;;9.15;61.98;100893.16;4922281;29;20024;-81
2022/03/15 07:41:01;;;;;;;15.00;3.90;;;;;;;9.16;62.23;100883.91;4923785;29;20365;-81
2022/03/15 07:43:27;;;;;;;7.68;2.22;;;;;;;9.25;60.93;100886.34;4922444;29;20043;-80
2022/03/15 07:45:53;;;;;;;11.75;5.45;;;;;;;9.13;62.37;100883.53;4923126;29;20039;-80
2022/03/15 07:48:19;;;;;;;17.02;4.28;;;;;;;9.17;62.23;100880.13;4924130;29;20067;-80
2022/03/15 07:50:44;;;;;;;11.25;4.90;;;;;;;9.14;62.51;100877.88;4922547;29;20697;-80
2022/03/15 07:53:10;;;;;;;7.97;5.55;;;;;;;8.99;62.72;100879.09;4923296;29;20399;-80
2022/03/15 07:55:36;;;;;;;10.70;4.13;;;;;;;8.78;63.42;100871.38;4922147;29;20027;-80
2022/03/15 07:58:03;;;;;;;10.98;4.40;;;;;;;8.96;62.76;100868.66;4922916;29;20036;-81
2022/03/15 08:00:28;;;;;;;9.27;4.28;;;;;;;8.94;63.02;100867.22;4922915;29;20052;-80
2022/03/15 08:02:53;;;;;;;11.02;3.47;;;;;;;9.06;62.82;100862.69;4923545;29;20078;-80
2022/03/15 08:05:20;;;;;;;9.90;3.50;;;;;;;8.98;62.65;100861.13;4922828;29;20043;-81
2022/03/15 08:07:45;;;;;;;14.90;4.82;;;;;;;9.03;62.84;100862.31;4922100;29;20333;-80
2022/03/15 08:10:11;;;;;;;7.10;3.20;;;;;;;8.90;62.99;100857.84;4923069;29;20839;-81
2022/03/15 08:12:37;;;;;;;7.60;2.80;;;;;;;8.96;62.24;100854.22;4921002;29;20027;-81
2022/03/15 08:15:06;;;;;;;8.35;2.83;;;;;;;9.23;61.91;100846.56;4922513;29;20032;-81
2022/03/15 08:17:35;;;;;;;33.22;5.05;;;;;;;9.06;62.29;100846.38;4929458;29;20031;-81
2022/03/15 08:20:00;;;;;;;9.18;3.50;;;;;;;9.20;61.84;100847.03;4922927;29;20047;-81
2022/03/15 08:22:28;;;;;;;9.55;3.67;;;;;;;9.27;62.04;100846.97;4921824;29;20055;-81
2022/03/15 08:24:54;;;;;;;8.68;3.30;;;;;;;9.31;61.92;100848.16;4922570;29;20194;-80
2022/03/15 08:27:19;;;;;;;8.57;3.38;;;;;;;9.47;61.81;100845.84;4922883;29;20034;-79
2022/03/15 08:29:45;;;;;;;11.52;5.03;;;;;;;9.52;61.63;100848.69;4922184;29;20032;-80
2022/03/15 08:32:10;;;;;;;10.13;3.55;;;;;;;9.48;61.88;100846.69;4922491;29;20508;-81
2022/03/15 08:34:37;;;;;;;8.27;3.58;;;;;;;9.38;62.11;100842.59;4921828;29;20059;-80
2022/03/15 08:37:03;;;;;;;10.60;5.05;;;;;;;9.35;62.49;100837.63;4922066;29;20375;-80
2022/03/15 08:39:43;;;;;;;12.93;4.00;;;;;;;9.30;62.55;100837.47;4921642;29;20047;-79
2022/03/15 08:42:09;;;;;;;10.73;3.85;;;;;;;9.31;62.16;100841.88;4921492;29;20032;-80
2022/03/15 08:44:34;;;;;;;11.15;4.57;;;;;;;9.29;62.55;100835.84;4922164;29;20027;-81
2022/03/15 08:47:00;;;;;;;11.57;4.20;;;;;;;9.26;62.21;100839.00;4920798;29;20034;-80
2022/03/15 08:49:25;;;;;;;15.90;4.53;;;;;;;9.32;62.72;100835.38;4921355;29;20040;-80
2022/03/15 08:51:50;;;;;;;18.23;4.80;;;;;;;9.36;62.65;100833.84;4921267;29;20051;-80
2022/03/15 08:54:18;;;;;;;9.93;3.40;;;;;;;9.48;61.87;100819.47;4922463;29;20500;-80
2022/03/15 08:56:43;;;;;;;10.23;4.07;;;;;;;9.42;62.06;100824.75;4920651;29;20393;-81
2022/03/15 08:59:12;;;;;;;11.35;3.47;;;;;;;9.34;62.39;100816.91;4921999;29;20028;-80
2022/03/15 09:01:40;;;;;;;8.50;4.28;;;;;;;9.27;62.01;100818.91;4921956;29;20114;-80
2022/03/15 09:04:06;;;;;;;15.25;4.35;;;;;;;9.23;62.24;100819.34;4920918;29;20087;-81
2022/03/15 09:06:32;;;;;;;29.40;5.68;;;;;;;9.52;61.97;100817.94;4921588;29;20050;-79
2022/03/15 09:09:00;;;;;;;9.20;3.08;;;;;;;9.39;62.52;100822.50;4922539;29;20024;-80
2022/03/15 09:11:25;;;;;;;8.80;4.15;;;;;;;9.48;62.39;100819.47;4920463;29;20032;-80
2022/03/15 09:13:51;;;;;;;7.60;4.22;;;;;;;9.48;62.61;100816.75;4920919;29;20063;-82
2022/03/15 09:16:16;;;;;;;12.82;3.63;;;;;;;9.62;62.17;100809.22;4922090;29;20023;-78
2022/03/15 09:18:43;;;;;;;10.07;3.90;;;;;;;9.49;62.22;100805.63;4930571;29;20038;-80
2022/03/15 09:21:09;;;;;;;10.50;4.60;;;;;;;9.44;62.47;100813.63;4931161;29;20114;-81
2022/03/15 09:23:34;;;;;;;12.07;4.53;;;;;;;9.34;63.01;100814.19;4928841;29;20035;-80
2022/03/15 09:26:00;;;;;;;11.40;4.40;;;;;;;9.50;62.80;100804.53;4921242;29;20138;-80
2022/03/15 09:28:25;;;;;;;8.80;4.40;;;;;;;9.39;62.61;100811.63;4928049;29;20032;-80
2022/03/15 09:30:50;;;;;;;10.83;4.23;;;;;;;9.58;62.34;100801.50;4928304;29;20035;-77
2022/03/15 09:33:16;;;;;;;8.82;3.90;;;;;;;9.48;62.81;100792.25;4931145;29;20278;-81
2022/03/15 09:35:42;;;;;;;7.20;2.97;;;;;;;9.67;62.85;100793.81;4921006;29;20035;-80
2022/03/15 09:38:08;;;;;;;11.20;4.75;;;;;;;9.66;62.61;100788.63;4920781;29;20054;-79
2022/03/15 09:40:33;;;;;;;9.73;4.20;;;;;;;9.66;62.61;100783.97;4924420;29;20458;-79
2022/03/15 09:43:01;;;;;;;15.13;6.75;;;;;;;9.78;62.08;100777.75;4922627;29;20034;-80
2022/03/15 09:45:38;;;;;;;9.50;3.22;;;;;;;9.78;62.47;100778.56;4926267;29;20074;-80
2022/03/15 09:48:11;;;;;;;15.73;3.97;;;;;;;9.69;62.40;100775.38;4939680;29;21295;-81
2022/03/15 09:50:39;;;;;;;10.70;3.45;;;;;;;9.85;62.41;100774.91;4934139;29;20032;-83
2022/03/15 09:53:05;;;;;;;9.60;4.15;;;;;;;10.02;61.67;100769.59;4929623;29;20440;-85
2022/03/15 09:55:30;;;;;;;18.92;4.13;;;;;;;9.90;61.83;100773.16;4928775;29;20038;-79
2022/03/15 10:00:58;;;;;;;11.68;4.50;;;;;;;10.06;61.32;100767.22;4925424;29;20073;-82
2022/03/15 10:03:25;;;;;;;20.65;4.55;;;;;;;10.18;61.12;100769.94;4932872;29;20035;-80
2022/03/15 10:05:51;;;;;;;11.63;4.05;;;;;;;10.13;61.17;100776.09;4930890;29;20753;-78
2022/03/15 10:08:18;;;;;;;13.07;4.00;;;;;;;9.96;61.71;100778.72;4913778;29;20484;-80
2022/03/15 10:10:47;;;;;;;10.43;3.45;;;;;;;10.03;61.26;100763.06;4932234;29;20450;-82
2022/03/15 10:13:13;;;;;;;9.85;3.63;;;;;;;10.09;61.88;100762.13;4928265;29;20506;-82
2022/03/15 10:15:51;;;;;;;7.72;2.90;;;;;;;10.05;61.98;100750.03;4930870;29;20031;-81
2022/03/15 10:18:18;;;;;;;15.88;4.78;;;;;;;10.27;61.63;100754.91;4942556;29;20381;-82
2022/03/15 10:20:43;;;;;;;13.80;4.93;;;;;;;10.28;61.17;100751.94;4931425;29;20452;-83
2022/03/15 10:23:14;;;;;;;10.75;3.35;;;;;;;10.31;61.10;100756.09;4922611;29;20110;-81
2022/03/15 10:25:48;;;;;;;11.18;3.90;;;;;;;10.34;61.00;100754.75;4905437;29;20068;-82
2022/03/15 10:28:15;;;;;;;10.80;4.60;;;;;;;10.42;61.02;100757.13;4937062;28;20441;-82
2022/03/15 10:30:41;;;;;;;11.57;4.28;;;;;;;10.59;60.60;100749.06;4921244;29;20036;-83
2022/03/15 10:33:07;;;;;;;10.60;4.38;;;;;;;10.62;60.74;100751.31;4905899;29;20039;-82
2022/03/15 10:35:39;;;;;;;11.93;4.70;;;;;;;10.70;60.54;100747.38;4903992;29;20352;-82
2022/03/15 10:38:06;;;;;;;12.88;4.40;;;;;;;10.50;60.76;100745.88;4922486;29;20051;-82
2022/03/15 10:40:38;;;;;;;12.02;4.43;;;;;;;10.52;60.75;100734.72;4925011;29;20098;-82
2022/03/15 10:43:08;;;;;;;10.63;4.00;;;;;;;10.44;61.25;100724.16;4924993;29;20116;-82
2022/03/15 10:45:35;;;;;;;11.10;4.22;;;;;;;10.64;60.74;100720.25;4926761;29;20044;-83
2022/03/15 10:48:11;;;;;;;15.80;4.20;;;;;;;10.79;60.38;100726.00;4925461;29;20102;-83
2022/03/15 10:50:37;;;;;;;20.67;6.13;;;;;;;11.04;59.53;100724.00;4926960;29;20113;-82
2022/03/15 10:53:07;;;;;;;21.38;5.38;;;;;;;10.98;60.07;100729.34;4925350;29;20031;-82
2022/03/15 10:55:33;;;;;;;13.68;4.22;;;;;;;11.15;59.80;100719.56;4925312;29;20043;-81
2022/03/15 10:58:10;;;;;;;14.43;4.85;;;;;;;11.16;59.20;100715.75;4925698;29;20039;-81
2022/03/15 11:00:39;;;;;;;12.63;4.95;;;;;;;10.81;60.58;100715.69;4924435;29;20048;-81
2022/03/15 11:03:10;;;;;;;12.50;5.18;;;;;;;11.02;60.13;100713.34;4926058;29;20130;-80
2022/03/15 11:05:41;;;;;;;10.15;4.30;;;;;;;11.16;59.96;100704.84;4923458;29;20288;-81
2022/03/15 11:08:15;;;;;;;7.32;3.58;;;;;;;11.27;59.21;100698.47;4925901;29;20034;-81
2022/03/15 11:10:44;;;;;;;;;;;;;;;11.24;59.72;100699.00;4925260;29;20031;-81
2022/03/15 11:13:11;;;;;;;10.02;3.83;;;;;;;11.19;60.13;100696.16;4929483;29;19922;-81
2022/03/15 11:15:49;;;;;;;15.80;4.57;;;;;;;11.15;59.80;100697.72;4928396;29;20143;-81
2022/03/15 11:18:17;;;;;;;16.85;4.95;;;;;;;11.20;59.80;100700.56;4924187;29;20458;-82
2022/03/15 11:20:45;;;;;;;14.50;4.60;;;;;;;11.35;58.94;100690.97;4925288;29;20071;-82
2022/03/15 11:23:14;;;;;;;8.48;3.83;;;;;;;11.27;60.14;100693.03;4923890;29;20028;-83
2022/03/15 11:25:42;;;;;;;9.02;3.47;;;;;;;11.26;60.51;100688.66;4926345;29;20128;-81
2022/03/15 11:28:14;;;;;;;10.57;4.30;;;;;;;11.30;60.66;100687.09;4924875;29;20027;-81
2022/03/15 11:30:42;;;;;;;8.55;4.05;;;;;;;11.29;61.37;100676.41;4923899;29;20027;-82